sensor_id;sensor_type;location;lat;lon;timestamp;P1;durP1;ratioP1;P2;durP2;ratioP2
4565;SDS011;2295;51.050;14.608;2024-02-21T00:01:39;14.90;;;4.25;;
4565;SDS011;2295;51.050;14.608;2024-02-21T00:04:07;15.48;;;3.58;;
4565;SDS011;2295;51.050;14.608;2024-02-21T00:06:36;17.80;;;4.13;;
4565;SDS011;2295;51.050;14.608;2024-02-21T00:09:04;18.02;;;4.10;;
4565;SDS011;2295;51.050;14.608;2024-02-21T00:11:33;21.20;;;4.15;;
4565;SDS011;2295;51.050;14.608;2024-02-21T00:14:02;17.98;;;3.83;;
4565;SDS011;2295;51.050;14.608;2024-02-21T00:16:30;17.23;;;3.42;;
4565;SDS011;2295;51.050;14.608;2024-02-21T00:19:00;16.38;;;3.83;;
4565;SDS011;2295;51.050;14.608;2024-02-21T00:21:29;21.17;;;3.50;;
4565;SDS011;2295;51.050;14.608;2024-02-21T00:23:58;18.00;;;3.75;;
4565;SDS011;2295;51.050;14.608;2024-02-21T00:26:26;11.25;;;3.08;;
4565;SDS011;2295;51.050;14.608;2024-02-21T00:28:55;22.48;;;4.43;;
4565;SDS011;2295;51.050;14.608;2024-02-21T00:31:24;19.15;;;4.03;;
4565;SDS011;2295;51.050;14.608;2024-02-21T00:33:52;17.50;;;3.00;;
4565;SDS011;2295;51.050;14.608;2024-02-21T00:36:22;24.55;;;4.25;;
4565;SDS011;2295;51.050;14.608;2024-02-21T00:38:51;14.48;;;3.88;;
4565;SDS011;2295;51.050;14.608;2024-02-21T00:41:19;17.75;;;3.75;;
4565;SDS011;2295;51.050;14.608;2024-02-21T00:43:48;13.65;;;2.95;;
4565;SDS011;2295;51.050;14.608;2024-02-21T00:46:17;10.80;;;3.05;;
4565;SDS011;2295;51.050;14.608;2024-02-21T00:48:45;12.05;;;3.35;;
4565;SDS011;2295;51.050;14.608;2024-02-21T00:51:14;22.75;;;3.42;;
4565;SDS011;2295;51.050;14.608;2024-02-21T00:53:44;15.50;;;3.90;;
4565;SDS011;2295;51.050;14.608;2024-02-21T00:56:13;10.80;;;3.10;;
4565;SDS011;2295;51.050;14.608;2024-02-21T00:58:41;13.40;;;3.15;;
4565;SDS011;2295;51.050;14.608;2024-02-21T01:01:10;22.83;;;4.53;;
4565;SDS011;2295;51.050;14.608;2024-02-21T01:03:40;14.15;;;3.05;;
4565;SDS011;2295;51.050;14.608;2024-02-21T01:06:08;14.45;;;3.45;;
4565;SDS011;2295;51.050;14.608;2024-02-21T01:08:37;12.60;;;3.13;;
4565;SDS011;2295;51.050;14.608;2024-02-21T01:11:07;17.85;;;3.85;;
4565;SDS011;2295;51.050;14.608;2024-02-21T01:13:35;16.50;;;3.33;;
4565;SDS011;2295;51.050;14.608;2024-02-21T01:16:04;14.00;;;3.63;;
4565;SDS011;2295;51.050;14.608;2024-02-21T01:18:33;19.58;;;3.95;;
4565;SDS011;2295;51.050;14.608;2024-02-21T01:21:02;21.08;;;3.42;;
4565;SDS011;2295;51.050;14.608;2024-02-21T01:23:33;21.75;;;3.90;;
4565;SDS011;2295;51.050;14.608;2024-02-21T01:26:02;17.95;;;4.13;;
4565;SDS011;2295;51.050;14.608;2024-02-21T01:28:32;17.27;;;3.67;;
4565;SDS011;2295;51.050;14.608;2024-02-21T01:31:01;12.38;;;3.40;;
4565;SDS011;2295;51.050;14.608;2024-02-21T01:33:30;21.30;;;3.42;;
4565;SDS011;2295;51.050;14.608;2024-02-21T01:36:01;17.08;;;3.25;;
4565;SDS011;2295;51.050;14.608;2024-02-21T01:38:30;16.45;;;4.35;;
4565;SDS011;2295;51.050;14.608;2024-02-21T01:40:58;13.48;;;3.15;;
4565;SDS011;2295;51.050;14.608;2024-02-21T01:43:27;16.38;;;3.58;;
4565;SDS011;2295;51.050;14.608;2024-02-21T01:45:57;17.17;;;3.30;;
4565;SDS011;2295;51.050;14.608;2024-02-21T01:48:25;20.52;;;3.72;;
4565;SDS011;2295;51.050;14.608;2024-02-21T01:50:54;12.32;;;3.50;;
4565;SDS011;2295;51.050;14.608;2024-02-21T01:53:29;21.13;;;3.10;;
4565;SDS011;2295;51.050;14.608;2024-02-21T01:55:58;18.83;;;3.38;;
4565;SDS011;2295;51.050;14.608;2024-02-21T01:58:27;26.10;;;3.92;;
4565;SDS011;2295;51.050;14.608;2024-02-21T02:00:58;16.95;;;3.67;;
4565;SDS011;2295;51.050;14.608;2024-02-21T02:03:27;12.52;;;3.00;;
4565;SDS011;2295;51.050;14.608;2024-02-21T02:05:56;16.05;;;3.20;;
4565;SDS011;2295;51.050;14.608;2024-02-21T02:08:25;14.30;;;3.42;;
4565;SDS011;2295;51.050;14.608;2024-02-21T02:10:53;16.80;;;3.40;;
4565;SDS011;2295;51.050;14.608;2024-02-21T02:13:22;19.98;;;3.45;;
4565;SDS011;2295;51.050;14.608;2024-02-21T02:15:50;14.07;;;3.25;;
4565;SDS011;2295;51.050;14.608;2024-02-21T02:18:20;11.98;;;3.17;;
4565;SDS011;2295;51.050;14.608;2024-02-21T02:20:49;14.00;;;3.53;;
4565;SDS011;2295;51.050;14.608;2024-02-21T02:23:23;21.00;;;2.95;;
4565;SDS011;2295;51.050;14.608;2024-02-21T02:25:52;10.63;;;2.92;;
4565;SDS011;2295;51.050;14.608;2024-02-21T02:28:21;17.48;;;4.13;;
4565;SDS011;2295;51.050;14.608;2024-02-21T02:30:50;14.85;;;3.47;;
4565;SDS011;2295;51.050;14.608;2024-02-21T02:33:19;20.63;;;4.13;;
4565;SDS011;2295;51.050;14.608;2024-02-21T02:35:47;15.52;;;4.28;;
4565;SDS011;2295;51.050;14.608;2024-02-21T02:38:16;14.90;;;3.97;;
4565;SDS011;2295;51.050;14.608;2024-02-21T02:40:46;16.27;;;3.70;;
4565;SDS011;2295;51.050;14.608;2024-02-21T02:43:15;17.80;;;3.78;;
4565;SDS011;2295;51.050;14.608;2024-02-21T02:45:43;18.25;;;3.88;;
4565;SDS011;2295;51.050;14.608;2024-02-21T02:48:12;23.45;;;3.88;;
4565;SDS011;2295;51.050;14.608;2024-02-21T02:50:40;16.90;;;3.60;;
4565;SDS011;2295;51.050;14.608;2024-02-21T02:53:09;18.55;;;4.15;;
4565;SDS011;2295;51.050;14.608;2024-02-21T02:55:37;20.08;;;4.22;;
4565;SDS011;2295;51.050;14.608;2024-02-21T02:58:07;21.95;;;4.32;;
4565;SDS011;2295;51.050;14.608;2024-02-21T03:00:36;14.88;;;4.45;;
4565;SDS011;2295;51.050;14.608;2024-02-21T03:03:06;22.33;;;4.10;;
4565;SDS011;2295;51.050;14.608;2024-02-21T03:05:35;18.45;;;4.28;;
4565;SDS011;2295;51.050;14.608;2024-02-21T03:08:04;19.02;;;3.67;;
4565;SDS011;2295;51.050;14.608;2024-02-21T03:10:34;15.65;;;3.80;;
4565;SDS011;2295;51.050;14.608;2024-02-21T03:13:03;21.30;;;4.55;;
4565;SDS011;2295;51.050;14.608;2024-02-21T03:15:33;18.80;;;4.20;;
4565;SDS011;2295;51.050;14.608;2024-02-21T03:18:01;18.38;;;4.20;;
4565;SDS011;2295;51.050;14.608;2024-02-21T03:20:30;13.55;;;4.93;;
4565;SDS011;2295;51.050;14.608;2024-02-21T03:22:59;11.50;;;4.15;;
4565;SDS011;2295;51.050;14.608;2024-02-21T03:25:27;17.35;;;5.13;;
4565;SDS011;2295;51.050;14.608;2024-02-21T03:27:56;18.05;;;4.53;;
4565;SDS011;2295;51.050;14.608;2024-02-21T03:30:24;10.80;;;4.20;;
4565;SDS011;2295;51.050;14.608;2024-02-21T03:32:54;23.92;;;4.55;;
4565;SDS011;2295;51.050;14.608;2024-02-21T03:35:23;16.08;;;4.22;;
4565;SDS011;2295;51.050;14.608;2024-02-21T03:37:53;16.00;;;4.78;;
4565;SDS011;2295;51.050;14.608;2024-02-21T03:40:22;15.40;;;4.20;;
4565;SDS011;2295;51.050;14.608;2024-02-21T03:42:50;20.92;;;4.40;;
4565;SDS011;2295;51.050;14.608;2024-02-21T03:45:19;19.77;;;4.15;;
4565;SDS011;2295;51.050;14.608;2024-02-21T03:47:47;21.60;;;4.38;;
4565;SDS011;2295;51.050;14.608;2024-02-21T03:50:17;16.30;;;3.58;;
4565;SDS011;2295;51.050;14.608;2024-02-21T03:52:46;14.85;;;4.47;;
4565;SDS011;2295;51.050;14.608;2024-02-21T03:55:15;19.80;;;3.95;;
4565;SDS011;2295;51.050;14.608;2024-02-21T03:57:43;12.30;;;3.80;;
4565;SDS011;2295;51.050;14.608;2024-02-21T04:00:12;11.82;;;3.80;;
4565;SDS011;2295;51.050;14.608;2024-02-21T04:02:41;12.23;;;4.50;;
4565;SDS011;2295;51.050;14.608;2024-02-21T04:05:09;11.90;;;4.10;;
4565;SDS011;2295;51.050;14.608;2024-02-21T04:07:40;17.35;;;4.30;;
4565;SDS011;2295;51.050;14.608;2024-02-21T04:10:08;11.35;;;4.28;;
4565;SDS011;2295;51.050;14.608;2024-02-21T04:12:37;16.15;;;4.15;;
4565;SDS011;2295;51.050;14.608;2024-02-21T04:15:05;15.95;;;3.70;;
4565;SDS011;2295;51.050;14.608;2024-02-21T04:17:34;22.60;;;3.92;;
4565;SDS011;2295;51.050;14.608;2024-02-21T04:20:03;13.38;;;4.15;;
4565;SDS011;2295;51.050;14.608;2024-02-21T04:22:34;17.70;;;4.85;;
4565;SDS011;2295;51.050;14.608;2024-02-21T04:25:05;15.57;;;4.53;;
4565;SDS011;2295;51.050;14.608;2024-02-21T04:27:33;21.42;;;4.80;;
4565;SDS011;2295;51.050;14.608;2024-02-21T04:30:02;18.65;;;4.22;;
4565;SDS011;2295;51.050;14.608;2024-02-21T04:32:30;19.00;;;4.30;;
4565;SDS011;2295;51.050;14.608;2024-02-21T04:34:59;18.20;;;4.55;;
4565;SDS011;2295;51.050;14.608;2024-02-21T04:37:28;20.15;;;3.75;;
4565;SDS011;2295;51.050;14.608;2024-02-21T04:39:57;18.73;;;4.07;;
4565;SDS011;2295;51.050;14.608;2024-02-21T04:42:27;19.35;;;4.18;;
4565;SDS011;2295;51.050;14.608;2024-02-21T04:44:55;18.17;;;4.90;;
4565;SDS011;2295;51.050;14.608;2024-02-21T04:47:24;20.02;;;4.03;;
4565;SDS011;2295;51.050;14.608;2024-02-21T04:49:53;17.90;;;4.38;;
4565;SDS011;2295;51.050;14.608;2024-02-21T04:52:21;12.30;;;4.63;;
4565;SDS011;2295;51.050;14.608;2024-02-21T04:54:50;25.45;;;4.53;;
4565;SDS011;2295;51.050;14.608;2024-02-21T04:57:19;22.05;;;4.65;;
4565;SDS011;2295;51.050;14.608;2024-02-21T04:59:49;19.17;;;4.22;;
4565;SDS011;2295;51.050;14.608;2024-02-21T05:02:17;18.27;;;4.78;;
4565;SDS011;2295;51.050;14.608;2024-02-21T05:04:49;18.73;;;4.15;;
4565;SDS011;2295;51.050;14.608;2024-02-21T05:07:17;16.60;;;4.70;;
4565;SDS011;2295;51.050;14.608;2024-02-21T05:09:46;11.02;;;4.28;;
4565;SDS011;2295;51.050;14.608;2024-02-21T05:12:15;18.35;;;4.72;;
4565;SDS011;2295;51.050;14.608;2024-02-21T05:14:43;13.90;;;4.07;;
4565;SDS011;2295;51.050;14.608;2024-02-21T05:17:13;14.18;;;3.63;;
4565;SDS011;2295;51.050;14.608;2024-02-21T05:19:42;10.32;;;3.88;;
4565;SDS011;2295;51.050;14.608;2024-02-21T05:22:10;11.18;;;3.80;;
4565;SDS011;2295;51.050;14.608;2024-02-21T05:24:39;23.15;;;4.60;;
4565;SDS011;2295;51.050;14.608;2024-02-21T05:27:08;16.33;;;3.95;;
4565;SDS011;2295;51.050;14.608;2024-02-21T05:29:36;30.40;;;4.43;;
4565;SDS011;2295;51.050;14.608;2024-02-21T05:32:05;17.13;;;4.20;;
4565;SDS011;2295;51.050;14.608;2024-02-21T05:34:35;21.02;;;4.35;;
4565;SDS011;2295;51.050;14.608;2024-02-21T05:37:04;14.32;;;4.00;;
4565;SDS011;2295;51.050;14.608;2024-02-21T05:39:32;18.52;;;4.38;;
4565;SDS011;2295;51.050;14.608;2024-02-21T05:42:01;22.00;;;4.78;;
4565;SDS011;2295;51.050;14.608;2024-02-21T05:44:29;21.50;;;5.38;;
4565;SDS011;2295;51.050;14.608;2024-02-21T05:46:58;23.05;;;4.88;;
4565;SDS011;2295;51.050;14.608;2024-02-21T05:49:26;23.77;;;5.28;;
4565;SDS011;2295;51.050;14.608;2024-02-21T05:51:57;20.33;;;4.90;;
4565;SDS011;2295;51.050;14.608;2024-02-21T05:54:25;16.98;;;4.70;;
4565;SDS011;2295;51.050;14.608;2024-02-21T05:56:54;17.67;;;4.10;;
4565;SDS011;2295;51.050;14.608;2024-02-21T05:59:23;24.10;;;6.03;;
4565;SDS011;2295;51.050;14.608;2024-02-21T06:01:55;11.60;;;4.78;;
4565;SDS011;2295;51.050;14.608;2024-02-21T06:04:25;18.27;;;5.50;;
4565;SDS011;2295;51.050;14.608;2024-02-21T06:06:53;16.35;;;5.00;;
4565;SDS011;2295;51.050;14.608;2024-02-21T06:09:23;18.00;;;4.75;;
4565;SDS011;2295;51.050;14.608;2024-02-21T06:11:52;14.85;;;4.90;;
4565;SDS011;2295;51.050;14.608;2024-02-21T06:14:20;22.80;;;4.85;;
4565;SDS011;2295;51.050;14.608;2024-02-21T06:16:49;16.50;;;4.45;;
4565;SDS011;2295;51.050;14.608;2024-02-21T06:19:18;14.50;;;4.28;;
4565;SDS011;2295;51.050;14.608;2024-02-21T06:21:46;20.70;;;4.82;;
4565;SDS011;2295;51.050;14.608;2024-02-21T06:24:15;14.60;;;3.78;;
4565;SDS011;2295;51.050;14.608;2024-02-21T06:26:45;18.98;;;5.07;;
4565;SDS011;2295;51.050;14.608;2024-02-21T06:29:13;23.48;;;4.60;;
4565;SDS011;2295;51.050;14.608;2024-02-21T06:31:42;14.73;;;5.60;;
4565;SDS011;2295;51.050;14.608;2024-02-21T06:34:11;17.23;;;4.95;;
4565;SDS011;2295;51.050;14.608;2024-02-21T06:36:40;22.67;;;5.60;;
4565;SDS011;2295;51.050;14.608;2024-02-21T06:39:08;19.80;;;5.15;;
4565;SDS011;2295;51.050;14.608;2024-02-21T06:41:37;18.67;;;4.75;;
4565;SDS011;2295;51.050;14.608;2024-02-21T06:44:08;15.45;;;4.20;;
4565;SDS011;2295;51.050;14.608;2024-02-21T06:46:37;12.18;;;4.00;;
4565;SDS011;2295;51.050;14.608;2024-02-21T06:49:05;25.10;;;5.75;;
4565;SDS011;2295;51.050;14.608;2024-02-21T06:51:34;12.73;;;4.28;;
4565;SDS011;2295;51.050;14.608;2024-02-21T06:54:03;16.15;;;5.40;;
4565;SDS011;2295;51.050;14.608;2024-02-21T06:56:32;15.40;;;5.00;;
4565;SDS011;2295;51.050;14.608;2024-02-21T06:59:00;14.13;;;4.70;;
4565;SDS011;2295;51.050;14.608;2024-02-21T07:01:31;14.63;;;4.25;;
4565;SDS011;2295;51.050;14.608;2024-02-21T07:04:00;13.23;;;4.28;;
4565;SDS011;2295;51.050;14.608;2024-02-21T07:06:28;17.10;;;6.30;;
4565;SDS011;2295;51.050;14.608;2024-02-21T07:09:01;14.45;;;5.43;;
4565;SDS011;2295;51.050;14.608;2024-02-21T07:11:30;15.93;;;4.63;;
4565;SDS011;2295;51.050;14.608;2024-02-21T07:13:59;20.40;;;4.70;;
4565;SDS011;2295;51.050;14.608;2024-02-21T07:16:27;17.88;;;5.65;;
4565;SDS011;2295;51.050;14.608;2024-02-21T07:18:57;20.52;;;5.32;;
4565;SDS011;2295;51.050;14.608;2024-02-21T07:21:26;18.60;;;5.38;;
4565;SDS011;2295;51.050;14.608;2024-02-21T07:23:54;17.77;;;4.38;;
4565;SDS011;2295;51.050;14.608;2024-02-21T07:26:23;10.45;;;4.07;;
4565;SDS011;2295;51.050;14.608;2024-02-21T07:28:51;19.48;;;4.35;;
4565;SDS011;2295;51.050;14.608;2024-02-21T07:31:20;15.88;;;4.35;;
4565;SDS011;2295;51.050;14.608;2024-02-21T07:33:49;21.30;;;4.35;;
4565;SDS011;2295;51.050;14.608;2024-02-21T07:36:27;19.27;;;4.43;;
4565;SDS011;2295;51.050;14.608;2024-02-21T07:38:57;11.98;;;3.92;;
4565;SDS011;2295;51.050;14.608;2024-02-21T07:41:25;15.93;;;4.10;;
4565;SDS011;2295;51.050;14.608;2024-02-21T07:43:55;11.73;;;4.32;;
4565;SDS011;2295;51.050;14.608;2024-02-21T07:46:23;17.20;;;4.65;;
4565;SDS011;2295;51.050;14.608;2024-02-21T07:48:52;16.27;;;4.40;;
4565;SDS011;2295;51.050;14.608;2024-02-21T07:51:20;19.02;;;6.05;;
4565;SDS011;2295;51.050;14.608;2024-02-21T07:53:50;29.05;;;16.60;;
4565;SDS011;2295;51.050;14.608;2024-02-21T07:56:19;31.08;;;12.40;;
4565;SDS011;2295;51.050;14.608;2024-02-21T07:58:47;18.52;;;8.95;;
4565;SDS011;2295;51.050;14.608;2024-02-21T08:01:18;14.60;;;4.97;;
4565;SDS011;2295;51.050;14.608;2024-02-21T08:03:47;29.85;;;12.85;;
4565;SDS011;2295;51.050;14.608;2024-02-21T08:06:16;17.10;;;7.28;;
4565;SDS011;2295;51.050;14.608;2024-02-21T08:08:44;22.48;;;10.43;;
4565;SDS011;2295;51.050;14.608;2024-02-21T08:11:14;23.52;;;9.45;;
4565;SDS011;2295;51.050;14.608;2024-02-21T08:13:43;22.15;;;9.95;;
4565;SDS011;2295;51.050;14.608;2024-02-21T08:16:11;20.20;;;6.18;;
4565;SDS011;2295;51.050;14.608;2024-02-21T08:18:40;22.10;;;7.72;;
4565;SDS011;2295;51.050;14.608;2024-02-21T08:21:10;24.92;;;8.15;;
4565;SDS011;2295;51.050;14.608;2024-02-21T08:23:39;21.55;;;9.00;;
4565;SDS011;2295;51.050;14.608;2024-02-21T08:26:07;13.35;;;6.70;;
4565;SDS011;2295;51.050;14.608;2024-02-21T08:28:37;20.30;;;7.70;;
4565;SDS011;2295;51.050;14.608;2024-02-21T08:31:06;17.75;;;6.78;;
4565;SDS011;2295;51.050;14.608;2024-02-21T08:33:34;21.52;;;6.45;;
4565;SDS011;2295;51.050;14.608;2024-02-21T08:36:03;24.92;;;6.07;;
4565;SDS011;2295;51.050;14.608;2024-02-21T08:38:32;15.05;;;5.72;;
4565;SDS011;2295;51.050;14.608;2024-02-21T08:41:00;35.90;;;10.90;;
4565;SDS011;2295;51.050;14.608;2024-02-21T08:43:29;15.50;;;6.13;;
4565;SDS011;2295;51.050;14.608;2024-02-21T08:46:00;19.52;;;8.32;;
4565;SDS011;2295;51.050;14.608;2024-02-21T08:48:29;15.40;;;7.68;;
4565;SDS011;2295;51.050;14.608;2024-02-21T08:50:58;23.95;;;8.30;;
4565;SDS011;2295;51.050;14.608;2024-02-21T08:53:26;16.05;;;5.07;;
4565;SDS011;2295;51.050;14.608;2024-02-21T08:55:55;15.18;;;5.30;;
4565;SDS011;2295;51.050;14.608;2024-02-21T08:58:24;20.67;;;6.93;;
4565;SDS011;2295;51.050;14.608;2024-02-21T09:00:53;15.55;;;5.85;;
4565;SDS011;2295;51.050;14.608;2024-02-21T09:03:23;20.58;;;5.45;;
4565;SDS011;2295;51.050;14.608;2024-02-21T09:05:51;12.32;;;4.68;;
4565;SDS011;2295;51.050;14.608;2024-02-21T09:08:20;18.70;;;4.57;;
4565;SDS011;2295;51.050;14.608;2024-02-21T09:10:50;22.63;;;4.93;;
4565;SDS011;2295;51.050;14.608;2024-02-21T09:13:19;17.83;;;5.00;;
4565;SDS011;2295;51.050;14.608;2024-02-21T09:15:48;13.90;;;4.55;;
4565;SDS011;2295;51.050;14.608;2024-02-21T09:18:16;13.27;;;3.92;;
4565;SDS011;2295;51.050;14.608;2024-02-21T09:20:46;10.95;;;3.95;;
4565;SDS011;2295;51.050;14.608;2024-02-21T09:23:15;17.40;;;4.72;;
4565;SDS011;2295;51.050;14.608;2024-02-21T09:25:46;16.55;;;4.97;;
4565;SDS011;2295;51.050;14.608;2024-02-21T09:28:14;16.52;;;4.85;;
4565;SDS011;2295;51.050;14.608;2024-02-21T09:30:43;16.42;;;4.00;;
4565;SDS011;2295;51.050;14.608;2024-02-21T09:33:12;16.17;;;4.70;;
4565;SDS011;2295;51.050;14.608;2024-02-21T09:35:57;13.63;;;4.22;;
4565;SDS011;2295;51.050;14.608;2024-02-21T09:38:26;11.25;;;4.05;;
4565;SDS011;2295;51.050;14.608;2024-02-21T09:40:56;13.15;;;4.60;;
4565;SDS011;2295;51.050;14.608;2024-02-21T09:43:27;15.60;;;5.20;;
4565;SDS011;2295;51.050;14.608;2024-02-21T09:45:57;18.75;;;6.28;;
4565;SDS011;2295;51.050;14.608;2024-02-21T09:48:30;13.88;;;5.70;;
4565;SDS011;2295;51.050;14.608;2024-02-21T09:51:03;16.05;;;4.93;;
4565;SDS011;2295;51.050;14.608;2024-02-21T09:53:34;22.00;;;4.90;;
4565;SDS011;2295;51.050;14.608;2024-02-21T09:56:03;12.20;;;4.65;;
4565;SDS011;2295;51.050;14.608;2024-02-21T09:58:32;11.82;;;4.93;;
4565;SDS011;2295;51.050;14.608;2024-02-21T10:01:01;15.35;;;4.68;;
4565;SDS011;2295;51.050;14.608;2024-02-21T10:03:50;16.40;;;4.90;;
4565;SDS011;2295;51.050;14.608;2024-02-21T10:06:23;7.85;;;4.20;;
4565;SDS011;2295;51.050;14.608;2024-02-21T10:08:52;67.50;;;15.63;;
4565;SDS011;2295;51.050;14.608;2024-02-21T10:11:23;15.77;;;5.80;;
4565;SDS011;2295;51.050;14.608;2024-02-21T10:14:02;23.52;;;4.72;;
4565;SDS011;2295;51.050;14.608;2024-02-21T10:16:31;11.50;;;4.35;;
4565;SDS011;2295;51.050;14.608;2024-02-21T10:19:01;16.20;;;4.50;;
4565;SDS011;2295;51.050;14.608;2024-02-21T10:21:31;13.40;;;4.88;;
4565;SDS011;2295;51.050;14.608;2024-02-21T10:24:00;18.10;;;4.45;;
4565;SDS011;2295;51.050;14.608;2024-02-21T10:26:29;19.27;;;4.32;;
4565;SDS011;2295;51.050;14.608;2024-02-21T10:28:57;16.70;;;4.10;;
4565;SDS011;2295;51.050;14.608;2024-02-21T10:31:26;19.30;;;4.50;;
4565;SDS011;2295;51.050;14.608;2024-02-21T10:33:56;15.85;;;4.28;;
4565;SDS011;2295;51.050;14.608;2024-02-21T10:36:25;20.10;;;4.88;;
4565;SDS011;2295;51.050;14.608;2024-02-21T10:38:55;12.88;;;5.10;;
4565;SDS011;2295;51.050;14.608;2024-02-21T10:41:24;15.02;;;4.40;;
4565;SDS011;2295;51.050;14.608;2024-02-21T10:43:54;8.45;;;4.53;;
4565;SDS011;2295;51.050;14.608;2024-02-21T10:46:23;9.63;;;3.38;;
4565;SDS011;2295;51.050;14.608;2024-02-21T10:48:56;10.80;;;3.80;;
4565;SDS011;2295;51.050;14.608;2024-02-21T10:51:29;11.35;;;3.20;;
4565;SDS011;2295;51.050;14.608;2024-02-21T10:54:05;9.55;;;3.22;;
4565;SDS011;2295;51.050;14.608;2024-02-21T10:56:38;8.82;;;2.88;;
4565;SDS011;2295;51.050;14.608;2024-02-21T10:59:07;12.38;;;3.03;;
4565;SDS011;2295;51.050;14.608;2024-02-21T11:01:36;6.53;;;2.90;;
4565;SDS011;2295;51.050;14.608;2024-02-21T11:04:06;10.45;;;3.47;;
4565;SDS011;2295;51.050;14.608;2024-02-21T11:06:35;11.18;;;3.40;;
4565;SDS011;2295;51.050;14.608;2024-02-21T11:09:06;13.82;;;4.72;;
4565;SDS011;2295;51.050;14.608;2024-02-21T11:11:35;5.75;;;3.17;;
4565;SDS011;2295;51.050;14.608;2024-02-21T11:14:07;6.25;;;3.50;;
4565;SDS011;2295;51.050;14.608;2024-02-21T11:16:36;10.25;;;3.35;;
4565;SDS011;2295;51.050;14.608;2024-02-21T11:19:07;11.73;;;3.38;;
4565;SDS011;2295;51.050;14.608;2024-02-21T11:21:36;10.65;;;3.25;;
4565;SDS011;2295;51.050;14.608;2024-02-21T11:24:07;10.70;;;3.75;;
4565;SDS011;2295;51.050;14.608;2024-02-21T11:26:37;10.15;;;3.80;;
4565;SDS011;2295;51.050;14.608;2024-02-21T11:29:05;13.38;;;3.70;;
4565;SDS011;2295;51.050;14.608;2024-02-21T11:31:39;11.48;;;3.60;;
4565;SDS011;2295;51.050;14.608;2024-02-21T11:34:09;11.60;;;4.15;;
4565;SDS011;2295;51.050;14.608;2024-02-21T11:36:46;13.60;;;3.95;;
4565;SDS011;2295;51.050;14.608;2024-02-21T11:39:20;8.10;;;3.30;;
4565;SDS011;2295;51.050;14.608;2024-02-21T11:42:02;10.60;;;3.70;;
4565;SDS011;2295;51.050;14.608;2024-02-21T11:44:31;10.10;;;3.65;;
4565;SDS011;2295;51.050;14.608;2024-02-21T11:46:59;18.75;;;4.47;;
4565;SDS011;2295;51.050;14.608;2024-02-21T11:49:30;13.80;;;3.17;;
4565;SDS011;2295;51.050;14.608;2024-02-21T11:51:59;8.85;;;3.63;;
4565;SDS011;2295;51.050;14.608;2024-02-21T11:54:31;10.55;;;3.70;;
4565;SDS011;2295;51.050;14.608;2024-02-21T11:57:00;7.10;;;3.00;;
4565;SDS011;2295;51.050;14.608;2024-02-21T11:59:30;6.97;;;3.42;;
4565;SDS011;2295;51.050;14.608;2024-02-21T12:01:59;5.68;;;3.35;;
4565;SDS011;2295;51.050;14.608;2024-02-21T12:04:29;11.05;;;3.60;;
4565;SDS011;2295;51.050;14.608;2024-02-21T12:06:58;5.85;;;3.15;;
4565;SDS011;2295;51.050;14.608;2024-02-21T12:09:27;12.50;;;4.35;;
4565;SDS011;2295;51.050;14.608;2024-02-21T12:12:00;10.57;;;4.05;;
4565;SDS011;2295;51.050;14.608;2024-02-21T12:14:29;9.63;;;3.63;;
4565;SDS011;2295;51.050;14.608;2024-02-21T12:16:58;12.32;;;3.75;;
4565;SDS011;2295;51.050;14.608;2024-02-21T12:19:28;11.15;;;3.75;;
4565;SDS011;2295;51.050;14.608;2024-02-21T12:21:58;9.98;;;3.88;;
4565;SDS011;2295;51.050;14.608;2024-02-21T12:24:28;8.80;;;3.33;;
4565;SDS011;2295;51.050;14.608;2024-02-21T12:26:57;10.32;;;3.63;;
4565;SDS011;2295;51.050;14.608;2024-02-21T12:29:28;16.50;;;3.50;;
4565;SDS011;2295;51.050;14.608;2024-02-21T12:31:56;10.10;;;3.40;;
4565;SDS011;2295;51.050;14.608;2024-02-21T12:34:25;12.00;;;3.25;;
4565;SDS011;2295;51.050;14.608;2024-02-21T12:37:10;10.20;;;3.20;;
4565;SDS011;2295;51.050;14.608;2024-02-21T12:39:40;18.00;;;4.60;;
4565;SDS011;2295;51.050;14.608;2024-02-21T12:42:08;16.77;;;3.45;;
4565;SDS011;2295;51.050;14.608;2024-02-21T12:44:39;7.70;;;2.97;;
4565;SDS011;2295;51.050;14.608;2024-02-21T12:47:09;9.98;;;3.60;;
4565;SDS011;2295;51.050;14.608;2024-02-21T12:49:38;4.13;;;3.03;;
4565;SDS011;2295;51.050;14.608;2024-02-21T12:52:11;15.52;;;3.55;;
4565;SDS011;2295;51.050;14.608;2024-02-21T12:54:40;8.90;;;3.55;;
4565;SDS011;2295;51.050;14.608;2024-02-21T12:57:09;7.53;;;3.55;;
4565;SDS011;2295;51.050;14.608;2024-02-21T12:59:39;10.07;;;3.40;;
4565;SDS011;2295;51.050;14.608;2024-02-21T13:02:08;12.90;;;3.30;;
4565;SDS011;2295;51.050;14.608;2024-02-21T13:04:37;9.32;;;3.17;;
4565;SDS011;2295;51.050;14.608;2024-02-21T13:07:07;16.08;;;2.75;;
4565;SDS011;2295;51.050;14.608;2024-02-21T13:09:36;10.27;;;3.00;;
4565;SDS011;2295;51.050;14.608;2024-02-21T13:12:05;9.80;;;3.38;;
4565;SDS011;2295;51.050;14.608;2024-02-21T13:14:34;14.85;;;3.80;;
4565;SDS011;2295;51.050;14.608;2024-02-21T13:17:06;8.32;;;3.33;;
4565;SDS011;2295;51.050;14.608;2024-02-21T13:19:35;11.27;;;3.45;;
4565;SDS011;2295;51.050;14.608;2024-02-21T13:22:03;7.53;;;2.78;;
4565;SDS011;2295;51.050;14.608;2024-02-21T13:24:33;11.65;;;2.90;;
4565;SDS011;2295;51.050;14.608;2024-02-21T13:27:01;7.30;;;3.03;;
4565;SDS011;2295;51.050;14.608;2024-02-21T13:29:30;9.77;;;3.10;;
4565;SDS011;2295;51.050;14.608;2024-02-21T13:31:58;10.15;;;2.80;;
4565;SDS011;2295;51.050;14.608;2024-02-21T13:34:28;9.93;;;3.03;;
4565;SDS011;2295;51.050;14.608;2024-02-21T13:36:57;12.02;;;3.63;;
4565;SDS011;2295;51.050;14.608;2024-02-21T13:39:26;18.83;;;4.10;;
4565;SDS011;2295;51.050;14.608;2024-02-21T13:41:55;5.25;;;4.00;;
4565;SDS011;2295;51.050;14.608;2024-02-21T13:44:25;12.05;;;4.07;;
4565;SDS011;2295;51.050;14.608;2024-02-21T13:46:54;14.05;;;3.30;;
4565;SDS011;2295;51.050;14.608;2024-02-21T13:49:22;6.85;;;2.83;;
4565;SDS011;2295;51.050;14.608;2024-02-21T13:51:52;6.22;;;2.92;;
4565;SDS011;2295;51.050;14.608;2024-02-21T13:54:22;6.32;;;3.20;;
4565;SDS011;2295;51.050;14.608;2024-02-21T13:56:50;9.85;;;3.60;;
4565;SDS011;2295;51.050;14.608;2024-02-21T13:59:19;8.07;;;5.07;;
4565;SDS011;2295;51.050;14.608;2024-02-21T14:01:47;6.15;;;2.88;;
4565;SDS011;2295;51.050;14.608;2024-02-21T14:04:16;10.50;;;3.15;;
4565;SDS011;2295;51.050;14.608;2024-02-21T14:06:45;8.25;;;2.60;;
4565;SDS011;2295;51.050;14.608;2024-02-21T14:09:15;5.40;;;3.40;;
4565;SDS011;2295;51.050;14.608;2024-02-21T14:11:43;7.43;;;3.05;;
4565;SDS011;2295;51.050;14.608;2024-02-21T14:14:12;5.60;;;3.17;;
4565;SDS011;2295;51.050;14.608;2024-02-21T14:16:41;11.93;;;4.85;;
4565;SDS011;2295;51.050;14.608;2024-02-21T14:19:10;10.02;;;4.85;;
4565;SDS011;2295;51.050;14.608;2024-02-21T14:21:39;10.20;;;4.07;;
4565;SDS011;2295;51.050;14.608;2024-02-21T14:24:07;13.40;;;4.80;;
4565;SDS011;2295;51.050;14.608;2024-02-21T14:26:37;9.75;;;3.83;;
4565;SDS011;2295;51.050;14.608;2024-02-21T14:29:07;3.97;;;2.70;;
4565;SDS011;2295;51.050;14.608;2024-02-21T14:31:36;4.65;;;2.55;;
4565;SDS011;2295;51.050;14.608;2024-02-21T14:34:04;8.00;;;2.55;;
4565;SDS011;2295;51.050;14.608;2024-02-21T14:36:34;13.90;;;3.55;;
4565;SDS011;2295;51.050;14.608;2024-02-21T14:39:02;8.82;;;3.53;;
4565;SDS011;2295;51.050;14.608;2024-02-21T14:41:31;8.40;;;3.40;;
4565;SDS011;2295;51.050;14.608;2024-02-21T14:44:03;9.85;;;4.30;;
4565;SDS011;2295;51.050;14.608;2024-02-21T14:46:31;11.23;;;4.10;;
4565;SDS011;2295;51.050;14.608;2024-02-21T14:48:59;11.38;;;4.45;;
4565;SDS011;2295;51.050;14.608;2024-02-21T14:51:29;6.95;;;4.03;;
4565;SDS011;2295;51.050;14.608;2024-02-21T14:53:58;16.48;;;4.15;;
4565;SDS011;2295;51.050;14.608;2024-02-21T14:56:26;4.50;;;3.60;;
4565;SDS011;2295;51.050;14.608;2024-02-21T14:58:54;10.77;;;4.32;;
4565;SDS011;2295;51.050;14.608;2024-02-21T15:01:31;4.97;;;4.03;;
4565;SDS011;2295;51.050;14.608;2024-02-21T15:04:05;9.75;;;5.00;;